createdAt,value
2023-11-04T00:02:05.310Z,2.47
2023-11-04T00:04:32.665Z,2.50
2023-11-04T00:07:01.428Z,2.43
2023-11-04T00:09:41.768Z,2.33
2023-11-04T00:12:13.950Z,2.20
2023-11-04T00:14:43.901Z,2.20
2023-11-04T00:17:11.086Z,2.47
2023-11-04T00:19:38.375Z,2.23
2023-11-04T00:22:05.628Z,2.30
2023-11-04T00:24:32.894Z,2.20
2023-11-04T00:27:00.391Z,2.20
2023-11-04T00:29:27.748Z,2.30
2023-11-04T00:31:54.997Z,2.10
2023-11-04T00:34:22.717Z,2.47
2023-11-04T00:36:49.963Z,2.50
2023-11-04T00:39:18.414Z,2.73
2023-11-04T00:41:45.645Z,2.20
2023-11-04T00:44:13.126Z,2.50
2023-11-04T00:46:40.397Z,2.40
2023-11-04T00:49:07.760Z,2.57
2023-11-04T00:51:35.639Z,2.60
2023-11-04T00:54:02.813Z,2.30
2023-11-04T00:56:30.336Z,2.60
2023-11-04T00:58:57.525Z,2.50
2023-11-04T01:01:24.716Z,2.40
2023-11-04T01:03:52.334Z,2.30
2023-11-04T01:06:19.629Z,2.10
2023-11-04T01:08:46.845Z,2.40
2023-11-04T01:11:14.212Z,2.40
2023-11-04T01:13:41.473Z,2.10
2023-11-04T01:16:08.872Z,2.60
2023-11-04T01:18:36.109Z,2.63
2023-11-04T01:21:03.911Z,2.47
2023-11-04T01:23:31.116Z,2.60
2023-11-04T01:25:58.275Z,2.70
2023-11-04T01:28:25.458Z,2.00
2023-11-04T01:30:52.970Z,2.30
2023-11-04T01:33:20.400Z,2.10
2023-11-04T01:35:47.790Z,2.20
2023-11-04T01:38:14.952Z,2.33
2023-11-04T01:40:42.154Z,2.30
2023-11-04T01:43:09.294Z,2.60
2023-11-04T01:45:36.471Z,2.33
2023-11-04T01:48:03.792Z,2.57
2023-11-04T01:50:31.039Z,2.50
2023-11-04T01:52:58.284Z,2.73
2023-11-04T01:55:25.439Z,2.27
2023-11-04T01:57:53.065Z,2.40
2023-11-04T02:00:21.685Z,2.43
2023-11-04T02:02:49.772Z,2.10
2023-11-04T02:05:17.114Z,2.30
2023-11-04T02:07:44.332Z,2.50
2023-11-04T02:10:11.656Z,2.50
2023-11-04T02:12:39.804Z,2.50
2023-11-04T02:15:07.160Z,2.53
2023-11-04T02:17:34.395Z,2.30
2023-11-04T02:20:05.723Z,2.30
2023-11-04T02:22:33.084Z,2.40
2023-11-04T02:25:00.401Z,2.60
2023-11-04T02:27:27.684Z,3.07
2023-11-04T02:29:54.877Z,2.30
2023-11-04T02:32:22.118Z,2.27
2023-11-04T02:34:49.360Z,2.00
2023-11-04T02:37:16.525Z,2.10
2023-11-04T02:39:43.759Z,2.00
2023-11-04T02:42:10.963Z,2.20
2023-11-04T02:44:38.131Z,2.20
2023-11-04T02:47:05.428Z,2.03
2023-11-04T02:49:32.633Z,2.03
2023-11-04T02:52:06.793Z,1.80
2023-11-04T02:54:38.051Z,2.00
2023-11-04T02:57:05.288Z,1.57
2023-11-04T02:59:32.501Z,1.87
2023-11-04T03:01:59.638Z,1.70
2023-11-04T03:04:27.134Z,1.70
2023-11-04T03:06:54.865Z,1.90
2023-11-04T03:09:22.409Z,1.70
2023-11-04T03:11:49.795Z,1.83
2023-11-04T03:14:17.464Z,1.83
2023-11-04T03:16:45.490Z,1.90
2023-11-04T03:19:12.825Z,1.90
2023-11-04T03:21:40.307Z,1.80
2023-11-04T03:24:07.776Z,1.93
2023-11-04T03:26:34.921Z,1.70
2023-11-04T03:29:02.102Z,1.73
2023-11-04T03:31:30.415Z,2.10
2023-11-04T03:33:57.640Z,1.80
2023-11-04T03:36:26.184Z,2.00
2023-11-04T03:38:53.449Z,2.00
2023-11-04T03:41:20.691Z,2.00
2023-11-04T03:43:47.876Z,1.67
2023-11-04T03:46:15.117Z,2.20
2023-11-04T03:48:42.330Z,2.20
2023-11-04T03:51:09.619Z,1.80
2023-11-04T03:53:37.915Z,2.00
2023-11-04T03:56:05.831Z,2.10
2023-11-04T03:58:32.984Z,1.60
2023-11-04T04:01:00.232Z,1.87
2023-11-04T04:03:27.454Z,1.70
2023-11-04T04:05:54.633Z,1.40
2023-11-04T04:08:21.825Z,1.40
2023-11-04T04:10:49.049Z,1.90
2023-11-04T04:13:16.285Z,1.50
2023-11-04T04:15:43.550Z,1.50
2023-11-04T04:18:11.579Z,1.60
2023-11-04T04:20:38.898Z,1.60
2023-11-04T04:23:06.117Z,1.60
2023-11-04T04:25:33.374Z,1.80
2023-11-04T04:28:00.559Z,1.50
2023-11-04T04:30:27.766Z,1.57
2023-11-04T04:32:54.988Z,1.73
2023-11-04T04:35:22.495Z,1.40
2023-11-04T04:37:49.657Z,1.43
2023-11-04T04:40:16.862Z,1.50
2023-11-04T04:42:44.124Z,1.27
2023-11-04T04:45:11.410Z,1.33
2023-11-04T04:47:40.213Z,1.30
2023-11-04T04:50:07.484Z,1.60
2023-11-04T04:52:35.110Z,1.30
2023-11-04T04:55:02.298Z,1.50
2023-11-04T04:57:29.520Z,1.30
2023-11-04T04:59:56.800Z,1.30
2023-11-04T05:02:23.992Z,1.37
2023-11-04T05:04:51.252Z,1.50
2023-11-04T05:07:18.690Z,1.40
2023-11-04T05:09:45.931Z,1.60
2023-11-04T05:12:13.116Z,1.50
2023-11-04T05:14:40.295Z,1.40
2023-11-04T05:17:07.990Z,1.30
2023-11-04T05:19:35.308Z,1.30
2023-11-04T05:22:04.108Z,1.27
2023-11-04T05:24:31.294Z,1.57
2023-11-04T05:26:59.737Z,1.20
2023-11-04T05:29:26.896Z,1.40
2023-11-04T05:31:54.045Z,1.10
2023-11-04T05:34:21.289Z,1.30
2023-11-04T05:36:49.375Z,1.33
2023-11-04T05:39:16.928Z,1.47
2023-11-04T05:41:44.621Z,1.30
2023-11-04T05:44:11.853Z,1.37
2023-11-04T05:46:39.439Z,1.23
2023-11-04T05:49:06.675Z,1.90
2023-11-04T05:51:33.956Z,1.50
2023-11-04T05:54:01.149Z,1.40
2023-11-04T05:56:29.125Z,1.40
2023-11-04T05:58:56.345Z,1.33
2023-11-04T06:01:26.710Z,1.50
2023-11-04T06:03:54.135Z,1.50
2023-11-04T06:06:21.959Z,1.37
2023-11-04T06:08:49.282Z,1.27
2023-11-04T06:11:16.459Z,1.37
2023-11-04T06:13:46.400Z,1.30
2023-11-04T06:16:13.545Z,1.50
2023-11-04T06:18:42.061Z,1.47
2023-11-04T06:21:16.370Z,1.60
2023-11-04T06:23:43.555Z,1.30
2023-11-04T06:26:10.689Z,1.43
2023-11-04T06:28:37.874Z,1.53
2023-11-04T06:31:11.553Z,1.53
2023-11-04T06:33:39.598Z,1.77
2023-11-04T06:36:07.141Z,2.57
2023-11-04T06:38:34.318Z,2.33
2023-11-04T06:41:01.789Z,3.43
2023-11-04T06:43:31.726Z,2.23
2023-11-04T06:45:58.914Z,1.80
2023-11-04T06:48:26.166Z,1.90
2023-11-04T06:50:54.569Z,1.60
2023-11-04T06:53:21.737Z,2.03
2023-11-04T06:55:48.988Z,2.00
2023-11-04T06:58:16.166Z,1.90
2023-11-04T07:00:43.375Z,1.87
2023-11-04T07:03:10.710Z,1.70
2023-11-04T07:05:39.772Z,1.30
2023-11-04T07:08:07.000Z,1.43
2023-11-04T07:10:38.372Z,2.00
2023-11-04T07:13:05.810Z,2.13
2023-11-04T07:15:34.272Z,2.50
2023-11-04T07:18:01.635Z,2.13
2023-11-04T07:20:28.979Z,1.80
2023-11-04T07:22:56.442Z,1.37
2023-11-04T07:25:23.708Z,1.40
2023-11-04T07:27:50.893Z,1.67
2023-11-04T07:30:18.166Z,1.27
2023-11-04T07:32:45.448Z,1.40
2023-11-04T07:35:12.792Z,1.60
2023-11-04T07:37:40.018Z,1.60
2023-11-04T07:40:08.807Z,1.20
2023-11-04T07:42:36.599Z,1.50
2023-11-04T07:45:03.851Z,1.23
2023-11-04T07:47:31.105Z,1.60
2023-11-04T07:49:58.405Z,1.10
2023-11-04T07:52:25.596Z,1.20
2023-11-04T07:54:52.850Z,1.10
2023-11-04T07:57:20.903Z,1.60
2023-11-04T07:59:48.105Z,1.27
2023-11-04T08:02:15.354Z,1.37
2023-11-04T08:04:42.759Z,1.40
2023-11-04T08:07:10.362Z,1.33
2023-11-04T08:09:38.048Z,1.30
2023-11-04T08:12:05.341Z,1.10
2023-11-04T08:14:32.504Z,1.07
2023-11-04T08:16:59.963Z,1.27
2023-11-04T08:19:27.162Z,1.13
2023-11-04T08:21:54.449Z,1.47
2023-11-04T08:24:21.676Z,1.10
2023-11-04T08:26:48.903Z,1.10
2023-11-04T08:29:16.095Z,1.20
2023-11-04T08:31:43.289Z,1.20
2023-11-04T08:34:10.548Z,1.10
2023-11-04T08:36:37.801Z,1.20
2023-11-04T08:39:05.037Z,1.20
2023-11-04T08:41:32.148Z,0.93
2023-11-04T08:43:59.346Z,1.03
2023-11-04T08:46:26.571Z,1.13
2023-11-04T08:48:53.811Z,1.07
2023-11-04T08:51:22.374Z,0.80
2023-11-04T08:53:49.520Z,1.30
2023-11-04T08:56:16.692Z,0.87
2023-11-04T08:58:47.221Z,0.90
2023-11-04T09:01:14.462Z,1.10
2023-11-04T09:03:48.279Z,1.00
2023-11-04T09:06:22.241Z,0.93
2023-11-04T09:08:49.900Z,1.90
2023-11-04T09:11:18.056Z,1.08
2023-11-04T09:13:45.590Z,0.90
2023-11-04T09:16:12.828Z,1.10
2023-11-04T09:18:40.185Z,0.70
2023-11-04T09:21:07.571Z,0.90
2023-11-04T09:23:34.815Z,1.00
2023-11-04T09:26:02.418Z,1.15
2023-11-04T09:28:29.671Z,1.60
2023-11-04T09:30:56.862Z,1.95
2023-11-04T09:33:24.856Z,0.85
2023-11-04T09:35:52.076Z,0.80
2023-11-04T09:38:19.366Z,1.23
2023-11-04T09:40:46.728Z,0.90
2023-11-04T09:43:14.804Z,0.93
2023-11-04T09:45:42.133Z,0.67
2023-11-04T09:48:09.532Z,0.73
2023-11-04T09:50:36.782Z,0.87
2023-11-04T09:53:08.844Z,0.70
2023-11-04T09:55:36.812Z,1.08
2023-11-04T09:58:04.824Z,0.90
2023-11-04T10:00:34.113Z,1.08
2023-11-04T10:03:01.527Z,0.70
2023-11-04T10:05:30.190Z,0.80
2023-11-04T10:07:57.596Z,0.90
2023-11-04T10:10:29.278Z,0.70
2023-11-04T10:12:58.190Z,0.80
2023-11-04T10:15:25.580Z,0.98
2023-11-04T10:17:53.284Z,0.80
2023-11-04T10:20:21.622Z,0.70
2023-11-04T10:22:49.568Z,0.70
2023-11-04T10:25:16.785Z,0.70
2023-11-04T10:27:44.035Z,0.90
2023-11-04T10:30:11.988Z,0.50
2023-11-04T10:32:40.666Z,0.60
2023-11-04T10:35:13.038Z,0.50
2023-11-04T10:37:41.345Z,0.70
2023-11-04T10:40:09.190Z,0.70
2023-11-04T10:42:48.687Z,0.50
2023-11-04T10:45:25.082Z,0.70
2023-11-04T10:48:02.017Z,0.83
2023-11-04T10:50:37.801Z,0.70
2023-11-04T10:53:12.891Z,0.60
2023-11-04T10:56:12.818Z,0.50
2023-11-04T10:58:43.352Z,0.50
2023-11-04T11:01:13.296Z,0.50
2023-11-04T11:03:40.916Z,0.70
2023-11-04T11:06:08.367Z,0.70
2023-11-04T11:08:35.600Z,0.73
2023-11-04T11:11:13.878Z,0.80
2023-11-04T11:13:42.261Z,0.60
2023-11-04T11:16:09.858Z,0.60
2023-11-04T11:18:37.141Z,0.73
2023-11-04T11:21:11.144Z,0.80
2023-11-04T11:23:38.813Z,1.00
2023-11-04T11:26:07.141Z,1.20
2023-11-04T11:28:38.442Z,1.30
2023-11-04T11:31:06.494Z,0.80
2023-11-04T11:33:33.769Z,0.70
2023-11-04T11:36:08.266Z,0.63
2023-11-04T11:38:36.668Z,0.63
2023-11-04T11:41:07.849Z,0.80
2023-11-04T11:43:35.413Z,1.20
2023-11-04T11:46:07.131Z,0.60
2023-11-04T11:48:38.975Z,0.70
2023-11-04T11:51:13.900Z,0.90
2023-11-04T11:53:47.478Z,0.90
2023-11-04T11:56:15.331Z,1.20
2023-11-04T11:58:44.246Z,1.17
2023-11-04T12:01:12.644Z,1.33
2023-11-04T12:03:40.182Z,1.10
2023-11-04T12:06:08.634Z,1.00
2023-11-04T12:08:35.938Z,0.87
2023-11-04T12:11:03.104Z,0.70
2023-11-04T12:13:30.290Z,0.60
2023-11-04T12:15:57.657Z,0.67
2023-11-04T12:18:24.871Z,1.90
2023-11-04T12:20:52.197Z,0.70
2023-11-04T12:23:19.498Z,0.80
2023-11-04T12:25:47.564Z,1.40
2023-11-04T12:28:14.919Z,1.70
2023-11-04T12:30:42.179Z,1.20
2023-11-04T12:33:10.514Z,0.70
2023-11-04T12:35:38.100Z,0.80
2023-11-04T12:38:05.610Z,0.90
2023-11-04T12:40:33.493Z,0.87
2023-11-04T12:43:02.806Z,0.63
2023-11-04T12:45:31.040Z,0.70
2023-11-04T12:47:58.493Z,0.80
2023-11-04T12:50:26.847Z,0.70
2023-11-04T12:52:54.426Z,0.80
2023-11-04T12:55:22.328Z,0.70
2023-11-04T12:57:49.744Z,0.70
2023-11-04T13:00:17.135Z,0.80
2023-11-04T13:02:44.500Z,1.00
2023-11-04T13:05:11.900Z,0.90
2023-11-04T13:07:39.248Z,1.10
2023-11-04T13:10:08.980Z,1.87
2023-11-04T13:12:36.367Z,1.03
2023-11-04T13:15:03.928Z,1.77
2023-11-04T13:17:31.095Z,2.00
2023-11-04T13:19:58.258Z,1.10
2023-11-04T13:22:26.456Z,3.17
2023-11-04T13:24:53.738Z,1.77
2023-11-04T13:27:21.730Z,1.70
2023-11-04T13:29:49.411Z,1.90
2023-11-04T13:32:16.717Z,2.60
2023-11-04T13:34:44.154Z,1.30
2023-11-04T13:37:11.439Z,1.40
2023-11-04T13:39:38.720Z,1.73
2023-11-04T13:42:05.983Z,1.30
2023-11-04T13:44:33.317Z,2.60
2023-11-04T13:47:00.669Z,2.20
2023-11-04T13:49:28.206Z,2.10
2023-11-04T13:51:55.433Z,1.83
2023-11-04T13:54:22.591Z,2.00
2023-11-04T13:56:50.015Z,1.50
2023-11-04T13:59:17.188Z,1.70
2023-11-04T14:01:47.077Z,2.23
2023-11-04T14:04:14.976Z,1.60
2023-11-04T14:06:42.316Z,1.37
2023-11-04T14:09:09.489Z,1.40
2023-11-04T14:11:36.717Z,1.13
2023-11-04T14:14:03.938Z,1.20
2023-11-04T14:16:31.119Z,1.50
2023-11-04T14:19:00.238Z,1.50
2023-11-04T14:21:27.793Z,1.60
2023-11-04T14:23:54.997Z,1.00
2023-11-04T14:26:22.600Z,1.00
2023-11-04T14:28:49.985Z,1.33
2023-11-04T14:31:18.638Z,1.00
2023-11-04T14:33:45.869Z,0.80
2023-11-04T14:36:13.194Z,0.83
2023-11-04T14:38:40.796Z,1.00
2023-11-04T14:41:07.972Z,0.67
2023-11-04T14:43:35.194Z,1.00
2023-11-04T14:46:02.460Z,0.60
2023-11-04T14:48:29.696Z,0.60
2023-11-04T14:50:56.868Z,0.60
2023-11-04T14:53:24.789Z,0.90
2023-11-04T14:55:52.239Z,0.70
2023-11-04T14:58:19.587Z,0.60
2023-11-04T15:00:47.685Z,0.60
2023-11-04T15:03:17.623Z,0.93
2023-11-04T15:05:45.247Z,0.90
2023-11-04T15:08:14.559Z,0.60
2023-11-04T15:10:41.722Z,0.77
2023-11-04T15:13:08.935Z,0.60
2023-11-04T15:15:36.202Z,0.80
2023-11-04T15:18:03.467Z,0.90
2023-11-04T15:20:30.707Z,0.67
2023-11-04T15:22:57.863Z,0.73
2023-11-04T15:25:25.097Z,0.90
2023-11-04T15:27:53.471Z,0.67
2023-11-04T15:30:20.890Z,0.90
2023-11-04T15:32:49.644Z,3.03
2023-11-04T15:35:16.917Z,0.60
2023-11-04T15:37:44.094Z,1.00
2023-11-04T15:40:11.522Z,0.90
2023-11-04T15:42:39.562Z,1.17
2023-11-04T15:45:08.219Z,1.30
2023-11-04T15:47:35.831Z,1.00
2023-11-04T15:50:03.912Z,1.10
2023-11-04T15:52:31.124Z,0.97
2023-11-04T15:54:58.395Z,0.90
2023-11-04T15:57:25.563Z,0.90
2023-11-04T15:59:55.345Z,1.00
2023-11-04T16:02:22.762Z,1.40
2023-11-04T16:04:49.964Z,1.00
2023-11-04T16:07:17.854Z,0.70
2023-11-04T16:09:45.073Z,0.80
2023-11-04T16:12:12.369Z,0.90
2023-11-04T16:14:39.554Z,1.30
2023-11-04T16:17:06.733Z,1.20
2023-11-04T16:19:34.007Z,1.20
2023-11-04T16:22:01.313Z,1.10
2023-11-04T16:24:28.530Z,1.50
2023-11-04T16:26:55.695Z,1.10
2023-11-04T16:29:22.860Z,0.90
2023-11-04T16:31:50.003Z,1.10
2023-11-04T16:34:17.240Z,1.73
2023-11-04T16:36:44.471Z,1.30
2023-11-04T16:39:11.655Z,1.20
2023-11-04T16:41:38.848Z,0.97
2023-11-04T16:44:06.457Z,1.03
2023-11-04T16:46:33.665Z,0.90
2023-11-04T16:49:00.889Z,1.77
2023-11-04T16:51:28.149Z,1.00
2023-11-04T16:53:55.409Z,1.33
2023-11-04T16:56:22.640Z,1.50
2023-11-04T16:58:50.012Z,1.40
2023-11-04T17:01:17.303Z,1.30
2023-11-04T17:03:44.637Z,1.63
2023-11-04T17:06:12.028Z,1.47
2023-11-04T17:08:41.069Z,2.73
2023-11-04T17:11:08.430Z,1.80
2023-11-04T17:13:35.776Z,2.00
2023-11-04T17:16:03.009Z,1.40
2023-11-04T17:18:30.314Z,3.80
2023-11-04T17:20:57.533Z,1.77
2023-11-04T17:23:24.730Z,1.90
2023-11-04T17:25:51.970Z,2.63
2023-11-04T17:28:19.177Z,6.50
2023-11-04T17:30:46.651Z,4.30
2023-11-04T17:33:13.945Z,1.60
2023-11-04T17:35:41.170Z,2.23
2023-11-04T17:38:08.452Z,2.20
2023-11-04T17:40:35.619Z,1.80
2023-11-04T17:43:02.973Z,1.40
2023-11-04T17:45:30.245Z,1.30
2023-11-04T17:47:57.818Z,1.10
2023-11-04T17:50:25.111Z,0.97
2023-11-04T17:52:52.671Z,1.30
2023-11-04T17:55:20.115Z,1.10
2023-11-04T17:57:47.499Z,1.33
2023-11-04T18:00:14.888Z,1.30
2023-11-04T18:02:42.176Z,1.00
2023-11-04T18:05:09.598Z,0.80
2023-11-04T18:07:37.153Z,0.90
2023-11-04T18:10:05.184Z,0.93
2023-11-04T18:12:32.473Z,1.40
2023-11-04T18:14:59.982Z,1.20
2023-11-04T18:17:27.427Z,1.50
2023-11-04T18:19:54.802Z,1.40
2023-11-04T18:22:22.938Z,1.70
2023-11-04T18:24:50.830Z,1.70
2023-11-04T18:27:30.061Z,1.30
2023-11-04T18:30:02.898Z,1.30
2023-11-04T18:32:30.084Z,2.50
2023-11-04T18:34:57.293Z,2.00
2023-11-04T18:37:24.561Z,2.20
2023-11-04T18:39:51.792Z,2.07
2023-11-04T18:42:19.058Z,2.43
2023-11-04T18:44:48.137Z,1.73
2023-11-04T18:47:15.693Z,1.10
2023-11-04T18:49:42.961Z,2.30
2023-11-04T18:52:10.350Z,2.33
2023-11-04T18:54:37.877Z,1.50
2023-11-04T18:57:05.704Z,1.20
2023-11-04T18:59:32.994Z,1.40
2023-11-04T19:02:00.526Z,1.23
2023-11-04T19:04:27.844Z,1.00
2023-11-04T19:06:55.073Z,1.60
2023-11-04T19:09:24.049Z,1.00
2023-11-04T19:11:51.210Z,1.17
2023-11-04T19:14:18.514Z,1.20
2023-11-04T19:16:45.670Z,1.00
2023-11-04T19:19:12.998Z,1.20
2023-11-04T19:21:40.650Z,1.10
2023-11-04T19:24:08.860Z,1.10
2023-11-04T19:26:36.070Z,1.53
2023-11-04T19:29:04.120Z,2.07
2023-11-04T19:31:31.731Z,1.30
2023-11-04T19:33:59.294Z,1.30
2023-11-04T19:36:26.476Z,1.00
2023-11-04T19:38:54.017Z,1.00
2023-11-04T19:41:21.232Z,0.90
2023-11-04T19:43:48.426Z,0.93
2023-11-04T19:46:15.614Z,1.00
2023-11-04T19:48:42.966Z,0.80
2023-11-04T19:51:10.670Z,0.87
2023-11-04T19:53:37.970Z,1.00
2023-11-04T19:56:05.303Z,1.00
2023-11-04T19:58:32.798Z,0.93
2023-11-04T20:01:00.066Z,0.90
2023-11-04T20:03:27.521Z,0.80
2023-11-04T20:05:55.028Z,0.83
2023-11-04T20:08:22.204Z,0.80
2023-11-04T20:10:49.658Z,0.80
2023-11-04T20:13:16.873Z,0.83
2023-11-04T20:15:44.834Z,0.70
2023-11-04T20:18:12.590Z,0.90
2023-11-04T20:20:39.909Z,1.00
2023-11-04T20:23:07.818Z,1.00
2023-11-04T20:25:36.585Z,1.10
2023-11-04T20:28:04.404Z,0.93
2023-11-04T20:30:31.769Z,0.90
2023-11-04T20:32:58.996Z,0.70
2023-11-04T20:35:27.428Z,0.80
2023-11-04T20:37:56.380Z,1.13
2023-11-04T20:40:23.669Z,1.37
2023-11-04T20:42:51.676Z,1.30
2023-11-04T20:45:20.613Z,0.90
2023-11-04T20:47:48.919Z,1.03
2023-11-04T20:50:16.105Z,1.00
2023-11-04T20:52:43.337Z,0.70
2023-11-04T20:55:10.604Z,0.90
2023-11-04T20:57:37.807Z,0.80
2023-11-04T21:00:05.986Z,0.80
2023-11-04T21:02:33.360Z,0.80
2023-11-04T21:05:00.614Z,0.83
2023-11-04T21:07:27.944Z,0.73
2023-11-04T21:09:55.236Z,0.90
2023-11-04T21:12:22.483Z,1.07
2023-11-04T21:14:49.705Z,1.00
2023-11-04T21:17:16.858Z,0.97
2023-11-04T21:19:44.136Z,0.90
2023-11-04T21:22:11.534Z,1.13
2023-11-04T21:24:38.689Z,0.90
2023-11-04T21:27:06.102Z,0.90
2023-11-04T21:29:33.243Z,0.80
2023-11-04T21:32:00.401Z,0.70
2023-11-04T21:34:29.326Z,0.90
2023-11-04T21:36:57.310Z,0.90
2023-11-04T21:39:28.049Z,0.90
2023-11-04T21:41:57.418Z,1.03
2023-11-04T21:44:25.277Z,0.97
2023-11-04T21:46:52.519Z,1.00
2023-11-04T21:49:19.745Z,1.00
2023-11-04T21:51:46.962Z,1.27
2023-11-04T21:54:14.273Z,0.87
2023-11-04T21:56:43.917Z,0.90
2023-11-04T21:59:11.989Z,1.00
2023-11-04T22:01:39.248Z,0.90
2023-11-04T22:04:06.698Z,0.90
2023-11-04T22:06:34.246Z,1.57
2023-11-04T22:09:01.385Z,1.00
2023-11-04T22:11:29.852Z,1.30
2023-11-04T22:13:57.055Z,1.00
2023-11-04T22:16:24.393Z,0.90
2023-11-04T22:18:53.155Z,0.90
2023-11-04T22:21:20.630Z,1.03
2023-11-04T22:23:48.209Z,2.03
2023-11-04T22:26:15.500Z,0.83
2023-11-04T22:28:42.684Z,0.90
2023-11-04T22:31:12.235Z,0.83
2023-11-04T22:33:39.483Z,0.90
2023-11-04T22:36:07.292Z,0.70
2023-11-04T22:38:34.405Z,0.80
2023-11-04T22:41:02.655Z,0.90
2023-11-04T22:43:30.076Z,0.70
2023-11-04T22:45:57.250Z,1.50
2023-11-04T22:48:24.485Z,0.90
2023-11-04T22:50:51.728Z,0.87
2023-11-04T22:53:18.895Z,0.70
2023-11-04T22:55:46.124Z,0.70
2023-11-04T22:58:13.330Z,0.70
2023-11-04T23:00:40.541Z,0.60
2023-11-04T23:03:09.767Z,0.60
2023-11-04T23:05:37.411Z,0.70
2023-11-04T23:08:04.750Z,0.60
2023-11-04T23:10:34.896Z,0.70
2023-11-04T23:13:02.326Z,0.77
2023-11-04T23:15:29.477Z,0.70
2023-11-04T23:17:57.216Z,1.00
2023-11-04T23:20:24.512Z,0.70
2023-11-04T23:22:52.047Z,0.63
2023-11-04T23:25:21.892Z,0.70
2023-11-04T23:27:49.868Z,0.80
2023-11-04T23:30:17.228Z,0.73
2023-11-04T23:32:44.611Z,0.80
2023-11-04T23:35:11.941Z,1.00
2023-11-04T23:37:39.234Z,0.70
2023-11-04T23:40:07.256Z,0.90
2023-11-04T23:42:34.649Z,0.83
2023-11-04T23:45:02.009Z,0.83
2023-11-04T23:47:29.222Z,0.60
2023-11-04T23:49:57.109Z,0.90
2023-11-04T23:52:25.318Z,0.60
2023-11-04T23:54:52.549Z,0.60
2023-11-04T23:57:20.112Z,0.60
2023-11-04T23:59:47.357Z,0.60
